Time;durP1;ratioP1;P1;durP2;ratioP2;P2;SDS_P1;SDS_P2;PMS_P1;PMS_P2;Temp;Humidity;BMP_temperature;BMP_pressure;BME280_temperature;BME280_humidity;BME280_pressure;Samples;Min_cycle;Max_cycle;Signal;HPM_P1;HPM_P2
2021/01/17 10:35:02;;;;;;;67.93;24.25;;;3.90;99.90;;;;;;12997488;22;20020;-91
2021/01/17 10:40:06;;;;;;;65.82;25.05;;;4.00;99.90;;;;;;12946006;22;20019;-92
2021/01/17 10:45:10;;;;;;;63.38;23.92;;;4.10;99.90;;;;;;12944534;22;20027;-93
2021/01/17 10:50:21;;;;;;;77.00;23.40;;;4.00;99.90;;;;;;12966712;22;20027;-93
2021/01/17 10:55:28;;;;;;;55.08;22.83;;;4.30;99.90;;;;;;12941654;22;20035;-93
2021/01/17 11:00:30;;;;;;;62.50;22.20;;;4.50;99.90;;;;;;12967509;22;20094;-93
2021/01/17 11:05:33;;;;;;;54.05;19.65;;;4.70;99.90;;;;;;12942084;22;20026;-93
2021/01/17 11:10:35;;;;;;;53.80;18.75;;;4.90;99.90;;;;;;12942765;22;20023;-93
2021/01/17 11:15:38;;;;;;;58.22;17.42;;;4.90;99.90;;;;;;12917392;22;20023;-93
2021/01/17 11:20:39;;;;;;;62.97;17.48;;;4.90;99.90;;;;;;12941473;22;20020;-93
2021/01/17 11:25:42;;;;;;;52.28;18.45;;;5.00;99.90;;;;;;12916236;22;20098;-93
2021/01/17 11:30:43;;;;;;;63.38;15.40;;;5.10;99.90;;;;;;12940396;22;20031;-93
2021/01/17 11:35:45;;;;;;;;;;;5.20;99.90;;;;;;12913593;22;20032;-93
2021/01/17 11:40:46;;;;;;;45.28;10.35;;;5.40;99.90;;;;;;12987208;22;19929;-92
2021/01/17 11:45:48;;;;;;;36.05;9.05;;;5.40;99.90;;;;;;12914042;22;20026;-93
2021/01/17 11:50:50;;;;;;;28.58;9.63;;;5.40;99.90;;;;;;12914579;22;20077;-94
2021/01/17 11:55:52;;;;;;;38.80;8.70;;;5.30;99.90;;;;;;12914404;22;20024;-95
2021/01/17 12:00:58;;;;;;;34.78;10.20;;;5.30;99.90;;;;;;12939752;22;20027;-94
2021/01/17 12:06:07;;;;;;;33.38;12.00;;;5.40;99.90;;;;;;12939282;22;20077;-94
2021/01/17 12:11:08;;;;;;;39.22;9.50;;;5.70;99.90;;;;;;12990420;22;20023;-94
2021/01/17 12:16:10;;;;;;;33.70;8.82;;;5.70;99.90;;;;;;12955844;22;20024;-94
2021/01/17 12:21:20;;;;;;;;;;;5.80;99.90;;;;;;12940456;22;20362;-95
2021/01/17 12:26:23;;;;;;;30.80;9.57;;;6.20;99.90;;;;;;13010001;22;20445;-95
2021/01/17 12:31:26;;;;;;;30.40;8.93;;;6.20;99.90;;;;;;12967550;22;20050;-94
2021/01/17 12:36:30;;;;;;;31.38;8.02;;;6.30;99.90;;;;;;12964183;22;20043;-93
2021/01/17 12:41:35;;;;;;;21.58;6.80;;;6.60;99.90;;;;;;12989577;22;20015;-96
2021/01/17 12:46:36;;;;;;;25.20;7.20;;;6.40;99.90;;;;;;12939218;22;20023;-95
2021/01/17 12:51:39;;;;;;;29.88;4.95;;;5.90;99.90;;;;;;12938933;22;20024;-94
2021/01/17 12:56:41;;;;;;;23.52;6.03;;;6.00;99.90;;;;;;12964254;22;20020;-94
2021/01/17 13:01:42;;;;;;;24.10;6.32;;;6.30;99.90;;;;;;12943626;22;20020;-94
2021/01/17 13:06:44;;;;;;;22.30;5.30;;;5.70;99.90;;;;;;12938014;22;20103;-94
2021/01/17 13:11:46;;;;;;;24.17;6.13;;;6.80;99.90;;;;;;12938597;22;20030;-94
2021/01/17 13:16:48;;;;;;;28.77;6.45;;;6.80;99.90;;;;;;12938725;22;20141;-95
2021/01/17 13:22:07;;;;;;;29.25;7.30;;;6.10;99.90;;;;;;10603103;27;20359;-93
2021/01/17 13:27:09;;;;;;;23.00;6.93;;;6.80;99.90;;;;;;10544077;28;20075;-93
2021/01/17 13:32:10;;;;;;;23.98;6.50;;;6.50;99.90;;;;;;10544261;28;20509;-94
2021/01/17 13:37:15;;;;;;;;;;;6.00;99.90;;;;;;10527559;28;20097;-95
2021/01/17 13:42:21;;;;;;;31.98;6.78;;;5.90;99.90;;;;;;10544417;28;19959;-94
2021/01/17 13:47:26;;;;;;;21.95;6.53;;;5.80;99.90;;;;;;10516253;28;20052;-94
2021/01/17 13:52:28;;;;;;;34.38;8.60;;;5.70;99.90;;;;;;10518309;28;20131;-94
2021/01/17 13:57:37;;;;;;;28.50;7.82;;;5.90;99.90;;;;;;10501760;28;20121;-94
2021/01/17 14:02:39;;;;;;;52.72;8.95;;;7.10;99.90;;;;;;10517871;28;20074;-94
2021/01/17 14:07:50;;;;;;;25.60;6.30;;;6.80;99.90;;;;;;10518000;28;20059;-94
2021/01/17 14:12:55;;;;;;;20.55;5.10;;;6.40;99.90;;;;;;10502417;28;20050;-94
2021/01/17 14:17:56;;;;;;;37.63;8.32;;;6.30;99.90;;;;;;10510036;28;20523;-93
2021/01/17 14:22:59;;;;;;;26.88;6.70;;;6.40;99.90;;;;;;10467859;28;20045;-93
2021/01/17 14:28:01;;;;;;;21.75;6.53;;;6.30;99.90;;;;;;10443163;28;20057;-92
2021/01/17 14:33:03;;;;;;;28.60;5.32;;;6.20;99.90;;;;;;10404558;28;20102;-92
2021/01/17 14:38:05;;;;;;;18.67;6.50;;;6.30;99.90;;;;;;10431501;28;20045;-94
2021/01/17 14:43:06;;;;;;;27.08;6.80;;;6.40;99.90;;;;;;10398232;28;20132;-94
2021/01/17 14:48:10;;;;;;;20.33;5.45;;;6.20;99.90;;;;;;10427422;28;20158;-93
2021/01/17 14:53:11;;;;;;;23.08;6.18;;;6.30;99.90;;;;;;10488135;28;20090;-94
2021/01/17 14:58:13;;;;;;;21.70;4.53;;;6.60;99.90;;;;;;10470624;28;20059;-93
2021/01/17 15:03:14;;;;;;;20.45;5.90;;;6.80;99.90;;;;;;10454468;28;20474;-93
2021/01/17 15:08:16;;;;;;;24.98;7.13;;;6.70;99.90;;;;;;10454990;28;20488;-93
2021/01/17 15:13:17;;;;;;;22.23;7.35;;;6.50;99.90;;;;;;10469575;28;20131;-94
2021/01/17 15:18:35;;;;;;;27.50;7.85;;;6.70;99.90;;;;;;10474951;28;20056;-93
2021/01/17 15:23:37;;;;;;;29.63;6.47;;;6.60;99.90;;;;;;10453935;28;20483;-93
2021/01/17 15:28:40;;;;;;;33.25;8.48;;;6.20;99.90;;;;;;10486950;28;20067;-92
2021/01/17 15:33:44;;;;;;;31.35;7.38;;;5.90;99.90;;;;;;10453276;28;20055;-94
2021/01/17 15:38:51;;;;;;;24.90;8.23;;;5.80;99.90;;;;;;10453934;28;20135;-93
2021/01/17 15:43:53;;;;;;;20.33;6.07;;;5.70;99.90;;;;;;10468282;28;20484;-93
2021/01/17 15:48:57;;;;;;;19.73;5.28;;;5.70;99.90;;;;;;10469729;28;20155;-89
2021/01/17 15:54:00;;;;;;;19.73;4.25;;;5.50;99.90;;;;;;10469351;28;20132;-94
2021/01/17 15:59:02;;;;;;;19.63;7.05;;;5.60;99.90;;;;;;10486552;28;20045;-93
2021/01/17 16:04:04;;;;;;;19.35;5.63;;;5.40;99.90;;;;;;10470029;28;20049;-93
2021/01/17 16:09:05;;;;;;;;;;;5.40;99.90;;;;;;10470568;28;20086;-94
2021/01/17 16:14:07;;;;;;;18.97;7.73;;;6.00;99.90;;;;;;10469041;28;19921;-94
2021/01/17 16:19:09;;;;;;;17.98;7.18;;;5.40;99.90;;;;;;10445101;28;20048;-94
2021/01/17 16:24:10;;;;;;;;;;;5.50;99.90;;;;;;10497921;28;20045;-93
2021/01/17 16:29:13;;;;;;;22.15;7.78;;;5.20;99.90;;;;;;10454723;28;19921;-94
2021/01/17 16:34:14;;;;;;;10.93;5.05;;;5.40;99.90;;;;;;10450545;28;20055;-94
2021/01/17 16:39:16;;;;;;;10.25;4.70;;;5.20;99.90;;;;;;10414887;28;20472;-94
2021/01/17 16:44:22;;;;;;;12.60;3.00;;;5.60;99.90;;;;;;10399782;28;20049;-94
